Time;durP1;ratioP1;P1;durP2;ratioP2;P2;SDS_P1;SDS_P2;PMS_P1;PMS_P2;Temp;Humidity;BMP_temperature;BMP_pressure;BME280_temperature;BME280_humidity;BME280_pressure;Samples;Min_cycle;Max_cycle;Signal;HPM_P1;HPM_P2
2021/09/05 00:02:16;;;;;;;3.80;2.70;;;;;;;13.90;75.23;95144.16;5094561;28;20036;-66
2021/09/05 00:04:43;;;;;;;4.78;3.35;;;;;;;13.97;74.25;95138.72;5106743;28;20466;-66
2021/09/05 00:07:10;;;;;;;4.35;2.88;;;;;;;13.95;73.92;95133.75;5106342;28;20040;-66
2021/09/05 00:09:36;;;;;;;4.22;2.28;;;;;;;13.99;74.12;95138.47;5106753;28;20088;-66
2021/09/05 00:12:04;;;;;;;4.95;2.20;;;;;;;14.08;73.68;95137.00;5088277;28;20044;-66
2021/09/05 00:14:31;;;;;;;3.65;2.25;;;;;;;14.12;73.55;95136.28;5106659;28;20110;-66
2021/09/05 00:16:58;;;;;;;3.72;2.58;;;;;;;14.16;73.38;95139.19;5106526;28;20043;-66
2021/09/05 00:19:25;;;;;;;4.18;2.60;;;;;;;14.15;73.77;95138.41;5106193;28;20092;-67
2021/09/05 00:21:52;;;;;;;3.33;2.25;;;;;;;14.17;73.69;95135.56;5089790;28;20509;-66
2021/09/05 00:24:19;;;;;;;3.42;1.95;;;;;;;14.17;74.01;95146.03;5086363;28;20113;-66
2021/09/05 00:26:47;;;;;;;4.50;2.38;;;;;;;14.08;73.22;95147.47;5086187;28;20044;-66
2021/09/05 00:29:15;;;;;;;3.58;2.40;;;;;;;14.01;73.29;95146.88;5085599;28;20044;-66
2021/09/05 00:31:42;;;;;;;5.25;3.20;;;;;;;13.89;73.63;95144.38;5086106;28;20055;-66
2021/09/05 00:34:09;;;;;;;4.20;2.90;;;;;;;13.85;73.79;95151.16;5092602;28;20047;-66
2021/09/05 00:36:37;;;;;;;3.83;2.70;;;;;;;13.73;74.57;95146.81;5106506;28;20450;-67
2021/09/05 00:39:06;;;;;;;4.18;2.67;;;;;;;13.65;74.88;95156.91;5100201;28;20040;-67
2021/09/05 00:41:33;;;;;;;4.95;2.70;;;;;;;13.63;75.38;95153.72;5086230;28;20032;-66
2021/09/05 00:44:05;;;;;;;3.15;2.33;;;;;;;13.57;75.94;95160.72;5085934;28;20101;-66
2021/09/05 00:46:35;;;;;;;5.68;2.58;;;;;;;13.58;76.55;95154.47;5096626;28;20109;-66
2021/09/05 00:49:04;;;;;;;3.47;2.50;;;;;;;13.62;76.04;95157.41;5085453;28;20032;-66
2021/09/05 00:51:35;;;;;;;5.22;3.00;;;;;;;13.58;76.25;95155.25;5086181;28;20538;-66
2021/09/05 00:54:07;;;;;;;3.55;2.40;;;;;;;13.56;76.62;95161.78;5103896;28;20100;-66
2021/09/05 00:56:36;;;;;;;4.60;2.95;;;;;;;13.46;77.03;95157.19;5086395;28;20441;-66
2021/09/05 00:59:10;;;;;;;4.13;2.75;;;;;;;13.51;77.44;95167.72;5084492;28;20040;-66
2021/09/05 01:01:38;;;;;;;4.22;3.00;;;;;;;13.48;78.49;95165.56;5086201;28;20440;-66
2021/09/05 01:04:06;;;;;;;4.25;2.83;;;;;;;13.46;79.46;95167.66;5084645;28;20044;-66
2021/09/05 01:06:35;;;;;;;4.60;2.47;;;;;;;13.54;80.09;95175.09;5086275;28;20048;-67
2021/09/05 01:09:05;;;;;;;3.78;2.30;;;;;;;13.34;81.21;95169.56;5099829;28;20047;-67
2021/09/05 01:11:34;;;;;;;4.95;3.38;;;;;;;13.27;81.44;95174.13;5109895;28;20042;-67
2021/09/05 01:14:05;;;;;;;4.15;2.70;;;;;;;13.24;79.81;95169.41;5108660;28;20055;-67
2021/09/05 01:16:43;;;;;;;3.60;2.30;;;;;;;13.23;79.86;95178.25;5109693;28;20083;-67
2021/09/05 01:19:29;;;;;;;3.75;2.78;;;;;;;13.10;80.85;95177.56;5100162;28;20125;-67
2021/09/05 01:22:14;;;;;;;4.10;2.45;;;;;;;13.02;81.44;95175.34;5089499;28;20062;-67
2021/09/05 01:25:01;;;;;;;3.65;2.35;;;;;;;12.92;81.78;95177.78;5087188;27;20051;-67
2021/09/05 01:28:07;;;;;;;5.07;2.63;;;;;;;12.76;84.52;95180.13;5086799;28;20879;-67
2021/09/05 01:31:13;;;;;;;10.15;2.30;;;;;;;12.79;83.51;95173.66;5066419;28;20442;-67
2021/09/05 01:34:11;;;;;;;3.95;2.40;;;;;;;12.81;83.51;95182.84;5066226;28;20521;-67
2021/09/05 01:37:13;;;;;;;4.40;2.50;;;;;;;12.66;84.98;95169.53;5102989;28;20584;-68
2021/09/05 01:40:18;;;;;;;;;;;;;;;12.63;85.72;95175.22;5041944;28;20041;-67
2021/09/05 01:43:03;;;;;;;4.20;2.85;;;;;;;12.49;87.40;95182.53;5045665;28;20006;-67
2021/09/05 01:45:56;;;;;;;3.70;2.35;;;;;;;12.47;87.46;95181.19;5081114;27;20048;-67
2021/09/05 01:48:46;;;;;;;3.88;2.83;;;;;;;12.59;87.17;95184.56;5068498;28;20139;-67
2021/09/05 01:51:32;;;;;;;3.63;2.60;;;;;;;12.63;86.10;95178.59;5109622;28;20192;-67
2021/09/05 01:54:34;;;;;;;4.15;2.55;;;;;;;12.72;85.21;95186.09;5046302;28;20049;-67
2021/09/05 01:57:27;;;;;;;5.75;2.42;;;;;;;12.80;84.21;95196.94;5085648;28;20474;-67
2021/09/05 02:00:13;;;;;;;4.18;2.70;;;;;;;12.86;83.49;95189.97;5087588;28;20082;-67
2021/09/05 02:02:51;;;;;;;3.00;2.50;;;;;;;12.80;84.08;95196.94;5087507;28;20040;-67
2021/09/05 02:05:41;;;;;;;3.72;2.65;;;;;;;12.80;84.52;95189.09;5087444;28;20067;-67
2021/09/05 02:08:35;;;;;;;3.60;2.25;;;;;;;12.82;84.50;95194.88;5087319;28;20048;-67
2021/09/05 02:11:21;;;;;;;5.05;2.20;;;;;;;12.92;83.54;95190.84;5087152;28;20576;-67
2021/09/05 02:14:06;;;;;;;3.53;2.55;;;;;;;12.97;82.38;95185.72;5089134;28;20059;-67
2021/09/05 02:16:51;;;;;;;3.67;2.28;;;;;;;13.02;82.89;95188.41;5088829;28;20055;-67
2021/09/05 02:19:44;;;;;;;3.80;2.70;;;;;;;13.06;81.92;95184.28;5085024;28;20505;-67
2021/09/05 02:22:31;;;;;;;4.22;2.05;;;;;;;13.00;82.80;95187.88;5088330;28;20140;-68
2021/09/05 02:25:12;;;;;;;3.40;2.33;;;;;;;13.01;82.15;95177.16;5087796;28;20044;-67
2021/09/05 02:28:00;;;;;;;4.38;2.42;;;;;;;13.01;81.90;95182.38;5073387;28;20105;-67
2021/09/05 02:30:45;;;;;;;3.28;2.38;;;;;;;13.03;80.91;95183.97;5088217;28;20063;-67
2021/09/05 02:33:38;;;;;;;3.45;2.35;;;;;;;12.94;81.10;95165.25;5087792;28;20036;-67
2021/09/05 02:36:33;;;;;;;3.53;2.60;;;;;;;12.97;81.63;95175.25;5078856;28;20127;-68
2021/09/05 02:39:23;;;;;;;3.53;2.30;;;;;;;12.97;81.55;95180.50;5095439;28;20051;-67
2021/09/05 02:42:18;;;;;;;3.80;2.80;;;;;;;12.97;81.77;95180.50;5106949;28;20052;-67
2021/09/05 02:45:09;;;;;;;2.83;2.03;;;;;;;12.94;82.02;95186.19;5085948;28;20048;-67
2021/09/05 02:48:05;;;;;;;3.30;2.17;;;;;;;12.85;82.78;95182.38;5088194;27;20052;-67
2021/09/05 02:51:01;;;;;;;3.10;2.40;;;;;;;12.85;83.08;95187.59;5050115;28;20045;-68
2021/09/05 02:54:06;;;;;;;4.20;2.30;;;;;;;12.85;83.13;95188.38;5047885;28;20080;-67
2021/09/05 02:56:42;;;;;;;3.55;2.60;;;;;;;12.82;82.12;95184.44;5049488;28;20110;-68
2021/09/05 02:59:33;;;;;;;2.97;2.15;;;;;;;12.94;80.50;95196.63;5074121;28;20635;-68
2021/09/05 03:02:19;;;;;;;3.45;1.98;;;;;;;12.94;81.06;95196.63;5087774;28;20416;-67
2021/09/05 03:05:09;;;;;;;3.40;1.92;;;;;;;12.91;80.46;95199.72;5086187;28;20044;-68
2021/09/05 03:07:56;;;;;;;4.15;2.53;;;;;;;12.84;80.82;95201.69;5054502;28;20132;-67
2021/09/05 03:10:44;;;;;;;5.53;2.55;;;;;;;12.72;82.80;95199.16;5086200;28;20036;-67
2021/09/05 03:13:31;;;;;;;2.95;2.20;;;;;;;12.63;83.38;95201.34;5087553;28;20500;-67
2021/09/05 03:16:18;;;;;;;5.38;2.80;;;;;;;12.57;83.32;95202.28;5097034;28;22046;-67
2021/09/05 03:19:11;;;;;;;4.22;2.65;;;;;;;12.53;83.46;95201.97;5090836;28;20130;-67
2021/09/05 03:21:56;;;;;;;4.18;2.63;;;;;;;12.46;84.22;95195.28;5107702;28;20047;-67
2021/09/05 03:24:43;;;;;;;3.50;2.28;;;;;;;12.29;84.81;95196.00;5099384;28;20063;-67
2021/09/05 03:27:30;;;;;;;4.15;2.97;;;;;;;12.27;85.25;95202.50;5069517;28;20429;-67
2021/09/05 03:30:15;;;;;;;4.40;3.25;;;;;;;12.23;86.47;95213.41;5087258;28;20100;-67
2021/09/05 03:33:11;;;;;;;6.43;3.20;;;;;;;12.11;87.55;95212.63;5087344;28;20457;-67
2021/09/05 03:35:58;;;;;;;3.40;2.58;;;;;;;12.03;88.29;95219.03;5086415;28;20052;-68
2021/09/05 03:38:43;;;;;;;3.78;2.58;;;;;;;12.02;88.96;95222.63;5089380;28;20043;-67
2021/09/05 03:41:36;;;;;;;8.07;3.42;;;;;;;11.94;89.35;95220.41;5090701;28;20056;-67
2021/09/05 03:44:21;;;;;;;4.38;2.90;;;;;;;11.92;89.68;95217.22;5106946;28;20062;-68
2021/09/05 03:47:08;;;;;;;4.20;3.35;;;;;;;11.87;90.12;95219.69;5089371;28;20405;-67
2021/09/05 03:50:01;;;;;;;4.28;2.72;;;;;;;11.83;89.80;95229.03;5070150;28;20048;-68
2021/09/05 03:52:29;;;;;;;5.32;3.47;;;;;;;11.85;89.88;95232.97;5085618;28;20479;-68
2021/09/05 03:55:00;;;;;;;4.65;3.03;;;;;;;11.80;89.73;95224.25;5085282;28;20552;-67
2021/09/05 03:57:29;;;;;;;5.10;3.10;;;;;;;11.84;89.15;95235.81;5084242;28;20052;-67
2021/09/05 03:59:56;;;;;;;7.32;3.05;;;;;;;11.80;88.65;95230.25;5084829;28;20040;-67
2021/09/05 04:02:24;;;;;;;4.80;2.42;;;;;;;11.77;88.80;95235.13;5085574;28;20048;-67
2021/09/05 04:04:51;;;;;;;5.60;3.20;;;;;;;11.75;89.75;95234.56;5085298;28;20078;-67
2021/09/05 04:07:19;;;;;;;5.72;2.95;;;;;;;11.70;90.23;95245.69;5099756;28;20043;-67
2021/09/05 04:12:32;;;;;;;5.93;3.50;;;;;;;11.64;90.15;95236.94;5105604;28;20097;-67
2021/09/05 04:14:59;;;;;;;3.83;3.42;;;;;;;11.64;90.30;95229.13;5106641;28;20048;-67
2021/09/05 04:17:26;;;;;;;5.70;3.50;;;;;;;11.56;91.18;95224.25;5106638;28;20035;-67
2021/09/05 04:19:53;;;;;;;4.70;3.00;;;;;;;11.54;91.06;95241.13;5096410;28;20047;-67
2021/09/05 04:22:19;;;;;;;9.13;4.15;;;;;;;11.53;91.76;95235.13;5085266;28;20046;-67
2021/09/05 04:24:47;;;;;;;10.98;3.58;;;;;;;11.56;92.20;95245.13;5085993;28;20052;-67
2021/09/05 04:27:13;;;;;;;4.07;2.80;;;;;;;11.50;93.32;95246.00;5086285;28;20044;-67
2021/09/05 04:29:40;;;;;;;4.78;3.20;;;;;;;11.53;93.69;95245.56;5086147;28;20047;-67
2021/09/05 04:32:07;;;;;;;4.40;2.80;;;;;;;11.63;93.43;95251.03;5086311;28;20040;-68
2021/09/05 04:34:34;;;;;;;3.92;2.83;;;;;;;11.69;92.95;95253.75;5086320;28;20044;-68
2021/09/05 04:37:01;;;;;;;4.65;3.42;;;;;;;11.73;93.43;95249.66;5086617;28;20489;-68
2021/09/05 04:39:27;;;;;;;6.85;4.03;;;;;;;11.80;93.18;95252.94;5095748;28;20467;-68
2021/09/05 04:41:54;;;;;;;5.82;3.03;;;;;;;11.88;93.19;95257.81;5106702;28;20044;-67
2021/09/05 04:44:21;;;;;;;5.70;3.75;;;;;;;11.89;93.10;95248.97;5109186;28;20044;-67
2021/09/05 04:46:48;;;;;;;5.30;2.90;;;;;;;12.00;92.86;95261.25;5096243;28;20116;-67
2021/09/05 04:49:15;;;;;;;9.68;3.13;;;;;;;12.05;92.28;95253.53;5090287;28;20032;-67
2021/09/05 04:51:41;;;;;;;4.82;3.17;;;;;;;12.16;92.30;95253.72;5090079;28;20050;-67
2021/09/05 04:54:08;;;;;;;5.63;3.15;;;;;;;12.23;93.04;95254.41;5089966;28;20036;-68
2021/09/05 04:56:35;;;;;;;4.57;3.00;;;;;;;12.35;92.87;95251.75;5088882;28;20735;-68
2021/09/05 04:59:02;;;;;;;4.13;2.78;;;;;;;12.48;92.19;95250.69;5089963;28;20421;-68
2021/09/05 05:01:28;;;;;;;4.82;2.60;;;;;;;12.63;92.74;95248.38;5089760;28;20053;-67
2021/09/05 05:03:56;;;;;;;6.15;4.15;;;;;;;12.78;93.04;95243.44;5088906;28;20048;-68
2021/09/05 05:06:39;;;;;;;6.40;3.22;;;;;;;12.86;91.96;95246.72;5089867;28;20067;-67
2021/09/05 05:09:09;;;;;;;4.05;2.55;;;;;;;12.95;92.13;95250.53;5090329;28;20425;-67
2021/09/05 05:11:37;;;;;;;5.30;3.10;;;;;;;13.15;91.36;95245.63;5088047;28;20047;-67
2021/09/05 05:14:04;;;;;;;4.93;2.85;;;;;;;13.19;90.32;95241.50;5089353;28;20040;-67
2021/09/05 05:16:31;;;;;;;3.63;2.78;;;;;;;13.34;89.35;95253.28;5089982;28;20399;-67
2021/09/05 05:18:59;;;;;;;19.35;7.03;;;;;;;13.38;88.95;95238.72;5088028;28;20117;-67
2021/09/05 05:21:27;;;;;;;6.50;4.47;;;;;;;13.57;89.74;95255.72;5089717;28;20054;-67
2021/09/05 05:23:55;;;;;;;4.75;2.83;;;;;;;13.69;87.65;95257.47;5089682;28;20470;-67
2021/09/05 05:26:24;;;;;;;5.18;3.15;;;;;;;13.78;87.67;95261.28;5089226;28;20505;-67
2021/09/05 05:28:51;;;;;;;5.40;3.50;;;;;;;13.90;87.52;95259.34;5089592;28;20081;-67
2021/09/05 05:31:17;;;;;;;5.65;3.20;;;;;;;14.04;86.38;95261.63;5089337;28;20048;-67
2021/09/05 05:33:44;;;;;;;4.75;2.88;;;;;;;14.14;85.65;95262.56;5087658;28;20068;-67
2021/09/05 05:36:11;;;;;;;3.97;2.50;;;;;;;14.18;85.46;95262.84;5089514;28;20052;-67
2021/09/05 05:38:39;;;;;;;5.75;2.90;;;;;;;14.24;85.61;95256.66;5090590;28;20036;-67
2021/09/05 05:41:07;;;;;;;4.10;2.97;;;;;;;14.23;87.00;95270.78;5109463;28;20040;-67
2021/09/05 05:43:34;;;;;;;5.97;3.60;;;;;;;14.28;87.26;95263.00;5109496;28;20474;-67
2021/09/05 05:46:01;;;;;;;5.75;2.70;;;;;;;14.29;86.82;95261.94;5096021;28;20039;-67
2021/09/05 05:48:28;;;;;;;5.70;2.92;;;;;;;14.30;86.63;95260.91;5109375;28;20047;-67
2021/09/05 05:50:55;;;;;;;4.20;2.65;;;;;;;14.38;87.48;95272.78;5087734;28;20097;-67
2021/09/05 05:53:21;;;;;;;5.63;2.90;;;;;;;14.42;86.76;95265.25;5103253;28;20101;-67
2021/09/05 05:55:48;;;;;;;3.20;2.50;;;;;;;14.49;86.81;95265.84;5106566;28;20505;-67
2021/09/05 05:58:15;;;;;;;5.03;3.83;;;;;;;14.51;85.53;95256.72;5087819;28;20048;-67
2021/09/05 06:00:57;;;;;;;4.35;2.90;;;;;;;14.62;85.53;95273.38;5086908;28;20058;-67
2021/09/05 06:03:23;;;;;;;5.72;3.13;;;;;;;14.53;85.31;95261.69;5087581;28;20109;-67
2021/09/05 06:05:52;;;;;;;6.55;3.65;;;;;;;14.69;85.31;95279.22;5087267;28;20047;-67
2021/09/05 06:08:19;;;;;;;6.03;3.40;;;;;;;14.70;84.69;95285.25;5088833;28;20066;-67
2021/09/05 06:10:46;;;;;;;7.10;3.83;;;;;;;14.77;85.53;95282.47;5088201;28;20055;-67
2021/09/05 06:13:13;;;;;;;8.23;3.75;;;;;;;14.77;85.85;95291.09;5088032;28;20040;-68
2021/09/05 06:15:40;;;;;;;6.43;4.13;;;;;;;14.88;84.68;95286.75;5088354;28;20509;-67
2021/09/05 06:18:06;;;;;;;7.63;4.00;;;;;;;15.06;84.04;95294.28;5088543;28;20036;-67
2021/09/05 06:20:33;;;;;;;9.77;4.40;;;;;;;15.12;84.07;95291.72;5088140;28;20043;-67
2021/09/05 06:23:04;;;;;;;5.70;3.42;;;;;;;15.13;82.79;95298.56;5088524;28;20119;-67
2021/09/05 06:25:30;;;;;;;5.93;3.80;;;;;;;15.25;83.46;95291.31;5087928;28;20471;-67
2021/09/05 06:27:57;;;;;;;3.58;2.53;;;;;;;15.45;82.55;95299.38;5088017;28;20040;-67
2021/09/05 06:30:24;;;;;;;5.38;3.72;;;;;;;15.62;81.54;95301.09;5087693;28;20045;-67
2021/09/05 06:32:51;;;;;;;5.18;3.58;;;;;;;15.77;80.92;95296.00;5088381;28;20045;-67
2021/09/05 06:35:18;;;;;;;4.22;3.20;;;;;;;15.90;79.07;95301.81;5088186;28;20048;-67
2021/09/05 06:37:44;;;;;;;5.30;3.53;;;;;;;15.98;78.72;95298.75;5088106;28;20039;-67
2021/09/05 06:40:15;;;;;;;5.30;3.40;;;;;;;16.14;78.76;95304.88;5100820;28;20595;-67
2021/09/05 06:42:42;;;;;;;6.78;3.80;;;;;;;16.35;77.83;95308.41;5087055;28;20043;-67
2021/09/05 06:45:09;;;;;;;4.68;3.30;;;;;;;16.53;76.77;95309.78;5086392;28;20040;-67
2021/09/05 06:47:36;;;;;;;4.57;3.67;;;;;;;16.70;77.40;95314.88;5087667;28;20040;-67
2021/09/05 06:50:04;;;;;;;4.53;3.40;;;;;;;16.84;74.89;95313.38;5082348;28;20039;-67
2021/09/05 06:52:31;;;;;;;4.65;2.67;;;;;;;16.96;74.91;95313.94;5082755;28;20657;-67
2021/09/05 06:54:58;;;;;;;4.22;3.00;;;;;;;17.08;75.58;95307.66;5087665;28;20048;-67
2021/09/05 06:57:25;;;;;;;6.93;3.33;;;;;;;17.24;75.12;95308.47;5086922;28;20052;-67
2021/09/05 06:59:52;;;;;;;4.72;3.05;;;;;;;17.29;75.40;95308.50;5087824;28;20485;-68
2021/09/05 07:02:20;;;;;;;3.92;3.13;;;;;;;17.46;72.94;95311.66;5087742;28;20538;-67
2021/09/05 07:04:48;;;;;;;4.47;3.10;;;;;;;17.51;72.90;95314.28;5085164;28;20170;-67
2021/09/05 07:07:35;;;;;;;3.75;2.63;;;;;;;17.74;72.71;95314.84;5087733;28;21759;-67
2021/09/05 07:10:02;;;;;;;3.20;2.35;;;;;;;17.84;72.39;95316.66;5088115;28;20115;-67
2021/09/05 07:12:30;;;;;;;4.25;3.20;;;;;;;17.94;70.43;95319.34;5087045;28;20101;-67
2021/09/05 07:14:57;;;;;;;4.13;2.30;;;;;;;17.85;70.42;95318.25;5086979;28;20035;-67
2021/09/05 07:17:24;;;;;;;4.40;2.58;;;;;;;17.68;70.61;95319.31;5087437;28;20048;-67
2021/09/05 07:19:51;;;;;;;5.55;2.78;;;;;;;17.84;70.50;95327.22;5086603;28;20059;-67
2021/09/05 07:22:18;;;;;;;4.18;2.88;;;;;;;18.06;67.95;95325.13;5086328;28;20097;-67
2021/09/05 07:24:44;;;;;;;6.78;2.88;;;;;;;18.19;67.19;95339.59;5087697;28;20048;-67
2021/09/05 07:27:11;;;;;;;3.78;2.60;;;;;;;18.12;68.44;95326.69;5086344;28;20501;-67
2021/09/05 07:29:38;;;;;;;3.63;2.30;;;;;;;18.03;67.48;95336.19;5082475;28;20044;-68
2021/09/05 07:32:05;;;;;;;4.88;3.38;;;;;;;18.33;65.73;95331.94;5084630;28;20044;-68
2021/09/05 07:34:32;;;;;;;4.05;2.42;;;;;;;18.31;66.11;95336.66;5079743;28;20124;-67
2021/09/05 07:36:59;;;;;;;3.40;2.28;;;;;;;18.39;65.16;95333.50;5093760;27;20058;-67
2021/09/05 07:39:26;;;;;;;3.90;2.53;;;;;;;18.34;67.01;95336.13;5092039;28;20505;-67
2021/09/05 07:41:52;;;;;;;4.07;2.50;;;;;;;18.51;65.20;95336.63;5088756;28;20054;-66
2021/09/05 07:44:19;;;;;;;4.88;2.50;;;;;;;18.73;64.33;95325.72;5085889;28;20039;-66
2021/09/05 07:46:46;;;;;;;4.45;2.58;;;;;;;18.87;62.45;95333.09;5087492;28;20055;-66
2021/09/05 07:49:13;;;;;;;4.72;3.10;;;;;;;18.96;63.23;95330.66;5089689;28;20097;-66
2021/09/05 07:51:39;;;;;;;3.17;2.20;;;;;;;19.12;62.32;95308.41;5095182;27;20461;-66
2021/09/05 07:54:06;;;;;;;4.35;2.40;;;;;;;19.40;60.41;95325.41;5095156;28;20044;-66
2021/09/05 07:56:33;;;;;;;3.03;2.13;;;;;;;19.45;60.65;95327.25;5092794;28;20052;-66
2021/09/05 07:59:00;;;;;;;2.70;1.98;;;;;;;19.51;59.01;95325.34;5087844;28;20047;-66
2021/09/05 08:01:26;;;;;;;2.58;1.95;;;;;;;19.79;57.84;95318.53;5095270;28;20063;-67
2021/09/05 08:03:54;;;;;;;4.65;2.30;;;;;;;19.99;55.38;95325.53;5090559;28;20384;-66
2021/09/05 08:06:20;;;;;;;2.92;2.55;;;;;;;19.73;57.73;95333.66;5089823;27;20515;-66
2021/09/05 08:08:47;;;;;;;3.65;2.47;;;;;;;19.90;57.49;95309.47;5087498;28;20048;-66
2021/09/05 08:11:14;;;;;;;2.90;1.80;;;;;;;20.27;57.59;95321.28;5097811;27;20096;-66
2021/09/05 08:13:41;;;;;;;6.20;2.53;;;;;;;20.61;57.78;95333.66;5091153;28;20047;-66
2021/09/05 08:16:08;;;;;;;3.42;1.90;;;;;;;20.96;53.33;95334.31;5086191;28;20048;-66
2021/09/05 08:18:37;;;;;;;2.83;1.83;;;;;;;21.19;52.37;95336.13;5086158;28;20051;-66
2021/09/05 08:21:06;;;;;;;3.33;2.17;;;;;;;21.34;51.07;95339.66;5083629;28;20401;-67
2021/09/05 08:23:34;;;;;;;4.43;2.28;;;;;;;21.40;50.33;95330.53;5094760;27;20580;-66
2021/09/05 08:26:01;;;;;;;3.03;2.03;;;;;;;21.23;50.36;95330.25;5087535;28;20048;-66
2021/09/05 08:28:28;;;;;;;2.83;1.92;;;;;;;21.41;49.06;95326.81;5085256;28;20480;-66
2021/09/05 08:30:55;;;;;;;2.75;1.98;;;;;;;21.64;48.80;95324.38;5084113;28;20036;-66
2021/09/05 08:33:22;;;;;;;2.53;1.75;;;;;;;21.96;48.69;95327.03;5083791;28;20864;-66
2021/09/05 08:35:49;;;;;;;2.50;1.77;;;;;;;22.04;50.81;95316.84;5080659;28;20051;-66
2021/09/05 08:38:16;;;;;;;3.30;2.03;;;;;;;22.19;47.81;95327.19;5090051;28;20047;-66
2021/09/05 08:40:45;;;;;;;3.05;2.25;;;;;;;22.46;49.58;95333.66;5081654;28;20040;-66
2021/09/05 08:43:13;;;;;;;2.75;1.90;;;;;;;22.84;47.71;95330.78;5096902;27;20048;-67
2021/09/05 08:45:43;;;;;;;2.72;2.25;;;;;;;23.05;48.57;95324.00;5101737;28;20502;-66
2021/09/05 08:48:10;;;;;;;2.30;1.85;;;;;;;23.38;47.52;95321.16;5097373;27;20048;-66
2021/09/05 08:50:36;;;;;;;2.63;1.83;;;;;;;23.56;47.38;95316.00;5100368;28;20047;-66
2021/09/05 08:53:03;;;;;;;4.28;2.22;;;;;;;23.75;44.46;95313.94;5099915;28;20062;-66
2021/09/05 08:55:30;;;;;;;2.85;2.10;;;;;;;23.81;43.98;95323.41;5083801;28;20055;-66
2021/09/05 08:57:57;;;;;;;2.92;2.33;;;;;;;23.82;44.55;95324.97;5089931;28;20437;-66
2021/09/05 09:00:24;;;;;;;2.58;1.88;;;;;;;23.87;43.31;95315.28;5087135;28;20044;-66
2021/09/05 09:02:53;;;;;;;2.58;2.33;;;;;;;23.44;44.44;95313.84;5087872;27;20059;-66
2021/09/05 09:05:37;;;;;;;2.95;1.75;;;;;;;23.74;44.66;95317.69;5090027;28;20166;-66
2021/09/05 09:08:07;;;;;;;2.95;1.80;;;;;;;23.68;46.76;95316.25;5092688;27;20486;-66
2021/09/05 09:10:57;;;;;;;2.50;1.73;;;;;;;23.74;44.46;95323.00;5101684;28;20489;-66
2021/09/05 09:13:27;;;;;;;3.75;2.00;;;;;;;23.71;44.34;95307.66;5101679;27;20052;-66
2021/09/05 09:15:56;;;;;;;4.53;2.72;;;;;;;23.92;44.80;95317.84;5084323;28;20039;-66
2021/09/05 09:18:28;;;;;;;3.60;2.53;;;;;;;23.99;42.90;95318.19;5084810;28;20470;-66
2021/09/05 09:20:57;;;;;;;3.58;2.15;;;;;;;24.32;43.91;95316.00;5093402;28;20040;-67
2021/09/05 09:23:27;;;;;;;2.83;1.98;;;;;;;24.92;40.93;95306.69;5089499;28;20070;-66
2021/09/05 09:26:14;;;;;;;3.40;2.03;;;;;;;25.06;39.89;95311.09;5095087;28;20040;-67
2021/09/05 09:28:41;;;;;;;2.00;1.70;;;;;;;25.13;41.00;95306.06;5102154;28;20047;-66
2021/09/05 09:31:15;;;;;;;2.85;2.05;;;;;;;25.40;39.96;95298.91;5100481;28;20489;-67
2021/09/05 09:33:44;;;;;;;4.03;1.52;;;;;;;25.18;38.51;95300.59;5102713;28;20060;-67
2021/09/05 09:36:16;;;;;;;2.95;2.08;;;;;;;25.10;39.10;95296.03;5090610;27;20478;-66
2021/09/05 09:39:05;;;;;;;4.70;2.15;;;;;;;25.34;44.02;95301.72;5092405;28;20538;-66
2021/09/05 09:41:40;;;;;;;5.50;2.10;;;;;;;25.00;42.86;95303.22;5087839;28;20036;-66
2021/09/05 09:44:09;;;;;;;3.28;2.40;;;;;;;25.65;37.16;95290.09;5088796;28;20792;-66
2021/09/05 09:46:37;;;;;;;3.28;2.47;;;;;;;25.05;38.08;95294.31;5104011;28;20112;-66
2021/09/05 09:49:06;;;;;;;3.25;2.35;;;;;;;25.41;37.37;95295.94;5089352;28;20125;-66
2021/09/05 09:51:34;;;;;;;7.45;2.90;;;;;;;24.49;39.97;95285.22;5086181;28;20036;-66
2021/09/05 09:54:02;;;;;;;11.05;2.72;;;;;;;24.72;39.55;95277.94;5085894;27;20052;-66
2021/09/05 09:56:29;;;;;;;2.78;2.13;;;;;;;24.95;40.32;95290.06;5088470;28;20115;-66
2021/09/05 09:58:58;;;;;;;2.42;1.90;;;;;;;25.16;40.42;95289.47;5087356;27;20056;-66
2021/09/05 10:01:27;;;;;;;4.75;2.10;;;;;;;25.22;40.82;95296.19;5089238;28;20050;-66
2021/09/05 10:03:57;;;;;;;3.25;1.92;;;;;;;25.58;37.87;95289.81;5085247;28;20200;-66
2021/09/05 10:06:26;;;;;;;2.22;1.73;;;;;;;25.73;38.16;95292.00;5086820;28;20105;-66
2021/09/05 10:09:04;;;;;;;3.10;1.70;;;;;;;26.45;36.08;95289.63;5086230;28;20056;-67
2021/09/05 10:11:32;;;;;;;2.47;1.73;;;;;;;26.60;35.72;95287.50;5087859;28;20044;-66
2021/09/05 10:14:00;;;;;;;1.90;1.42;;;;;;;26.51;33.88;95277.63;5103319;27;20444;-67
2021/09/05 10:16:27;;;;;;;2.15;1.70;;;;;;;27.13;33.29;95291.44;5092333;28;20577;-66
2021/09/05 10:18:59;;;;;;;5.75;2.10;;;;;;;27.02;31.64;95279.56;5094426;27;21967;-66
2021/09/05 10:21:27;;;;;;;3.28;1.50;;;;;;;28.00;30.81;95273.88;5092760;28;20456;-66
2021/09/05 10:23:57;;;;;;;2.05;1.52;;;;;;;28.67;32.47;95279.91;5088099;28;20071;-66
2021/09/05 10:26:25;;;;;;;1.98;1.65;;;;;;;28.70;32.09;95268.53;5086228;28;20448;-66
2021/09/05 10:28:54;;;;;;;2.15;1.60;;;;;;;28.57;27.87;95275.00;5086522;28;20067;-66
2021/09/05 10:31:32;;;;;;;2.22;1.65;;;;;;;29.19;28.22;95266.88;5081548;27;20058;-66
2021/09/05 10:33:59;;;;;;;2.13;1.45;;;;;;;29.45;27.50;95280.66;5088360;28;20040;-66
2021/09/05 10:36:27;;;;;;;3.60;1.48;;;;;;;29.02;27.58;95268.69;5093151;28;20046;-66
2021/09/05 10:39:08;;;;;;;2.45;1.60;;;;;;;28.72;27.05;95271.66;5090350;28;20059;-66
2021/09/05 10:41:49;;;;;;;1.83;1.60;;;;;;;28.00;28.88;95266.66;5095687;28;20036;-66
2021/09/05 10:44:18;;;;;;;4.10;2.47;;;;;;;27.93;29.88;95279.81;5088801;28;20050;-66
2021/09/05 10:46:51;;;;;;;2.42;1.95;;;;;;;27.70;28.48;95271.34;5087985;28;20509;-66
2021/09/05 10:49:38;;;;;;;3.33;2.50;;;;;;;27.39;30.60;95271.78;5087978;28;20044;-67
2021/09/05 10:52:05;;;;;;;1.58;1.23;;;;;;;27.24;31.05;95276.59;5087750;28;20501;-67
2021/09/05 10:54:43;;;;;;;3.30;2.10;;;;;;;27.00;30.44;95276.44;5086166;28;20040;-66
2021/09/05 10:57:10;;;;;;;2.47;1.83;;;;;;;26.86;29.18;95277.47;5085982;28;20802;-66
2021/09/05 10:59:39;;;;;;;2.80;1.85;;;;;;;26.86;31.13;95282.81;5087821;28;20032;-66
2021/09/05 11:02:05;;;;;;;2.15;1.60;;;;;;;27.09;29.76;95274.50;5087823;28;20409;-66
2021/09/05 11:04:43;;;;;;;3.28;2.30;;;;;;;27.00;30.64;95273.78;5084805;28;20063;-66
2021/09/05 11:07:28;;;;;;;1.60;1.30;;;;;;;27.02;30.16;95274.22;5086324;28;20554;-66
2021/09/05 11:09:56;;;;;;;2.08;1.70;;;;;;;26.93;30.35;95281.53;5087387;28;20036;-67
2021/09/05 11:12:38;;;;;;;2.17;1.55;;;;;;;26.45;31.05;95278.94;5086814;28;20115;-66
2021/09/05 11:15:14;;;;;;;2.60;1.73;;;;;;;26.34;30.24;95272.38;5087441;28;20047;-66
2021/09/05 11:17:41;;;;;;;5.25;2.45;;;;;;;26.48;31.78;95280.94;5086475;28;20497;-66
2021/09/05 11:20:11;;;;;;;2.70;2.03;;;;;;;26.40;31.87;95287.13;5087586;28;20036;-66
2021/09/05 11:22:39;;;;;;;4.80;3.00;;;;;;;26.04;32.04;95285.69;5083101;28;20039;-66
2021/09/05 11:25:07;;;;;;;2.78;2.10;;;;;;;26.02;32.84;95282.53;5085111;28;20044;-66
2021/09/05 11:27:36;;;;;;;3.90;2.47;;;;;;;25.86;34.57;95284.13;5085469;28;20154;-66
2021/09/05 11:30:11;;;;;;;2.13;1.80;;;;;;;25.69;33.28;95284.94;5083939;28;20055;-66
2021/09/05 11:32:40;;;;;;;1.70;1.38;;;;;;;25.34;35.08;95280.41;5086141;28;20047;-66
2021/09/05 11:35:09;;;;;;;5.95;2.55;;;;;;;25.45;35.55;95285.44;5086973;28;20048;-66
2021/09/05 11:37:44;;;;;;;2.60;1.88;;;;;;;25.23;33.91;95289.78;5086472;28;20063;-66
2021/09/05 11:40:19;;;;;;;2.53;1.63;;;;;;;25.38;34.80;95285.91;5086540;28;20043;-66
2021/09/05 11:42:49;;;;;;;1.88;1.30;;;;;;;26.05;33.41;95281.88;5086760;28;20517;-66
2021/09/05 11:45:19;;;;;;;1.83;1.27;;;;;;;26.26;33.81;95286.53;5086582;28;20047;-66
2021/09/05 11:47:47;;;;;;;2.20;1.58;;;;;;;25.94;32.74;95286.00;5085315;28;20437;-66
2021/09/05 11:50:15;;;;;;;3.08;1.95;;;;;;;26.12;33.18;95284.84;5084617;28;20047;-66
2021/09/05 11:52:43;;;;;;;1.90;1.42;;;;;;;25.73;34.30;95281.31;5085083;28;20089;-66
2021/09/05 11:55:17;;;;;;;2.67;1.70;;;;;;;26.07;34.00;95285.03;5085919;28;20227;-66
2021/09/05 11:57:54;;;;;;;2.65;2.10;;;;;;;26.35;32.69;95289.97;5084800;28;20051;-66
2021/09/05 12:00:31;;;;;;;6.15;1.80;;;;;;;26.40;32.42;95287.13;5084948;28;20039;-66
2021/09/05 12:03:11;;;;;;;13.80;5.68;;;;;;;26.18;33.34;95295.34;5085332;28;20202;-66
2021/09/05 12:05:44;;;;;;;29.63;4.53;;;;;;;26.32;31.45;95290.59;5084890;28;20056;-66